Terminal Aerodrome Forecast
Issued by NWS Cleveland, OH

Home | Current Version | Previous Version | Graphics & Text | Print | Product List | Glossary On
Versions: 1 2 3 4 5 6 7 8 9 10 11 12 13 14 15 16 17 18 19
445
FTUS41 KCLE 031730
TAFCAK
TAF
KCAK 031730Z 0318/0418 22015G25KT P6SM SCT025 BKN035
      TEMPO 0318/0320 BKN025
     FM040000 24012KT P6SM BKN035
     FM040600 25010KT P6SM OVC022=

USA.gov is the U.S. government's official web portal to all federal, state and local government web resources and services.